createdAt,value
2023-08-30T00:01:00.831Z,1.50
2023-08-30T00:03:27.682Z,1.70
2023-08-30T00:05:54.382Z,2.00
2023-08-30T00:08:20.931Z,1.70
2023-08-30T00:10:47.476Z,1.63
2023-08-30T00:13:14.034Z,1.53
2023-08-30T00:15:40.534Z,1.80
2023-08-30T00:18:07.549Z,1.37
2023-08-30T00:20:35.071Z,1.43
2023-08-30T00:23:01.689Z,1.60
2023-08-30T00:25:28.580Z,1.47
2023-08-30T00:27:55.295Z,1.57
2023-08-30T00:30:21.853Z,1.60
2023-08-30T00:32:48.441Z,1.70
2023-08-30T00:35:15.050Z,1.53
2023-08-30T00:37:41.616Z,1.67
2023-08-30T00:40:08.507Z,1.40
2023-08-30T00:42:35.234Z,1.77
2023-08-30T00:45:01.782Z,1.30
2023-08-30T00:47:28.431Z,1.60
2023-08-30T00:49:54.991Z,1.60
2023-08-30T00:52:21.526Z,1.50
2023-08-30T00:54:48.053Z,1.80
2023-08-30T00:57:14.643Z,1.50
2023-08-30T00:59:41.223Z,1.40
2023-08-30T01:02:07.789Z,1.80
2023-08-30T01:04:34.310Z,1.47
2023-08-30T01:07:00.940Z,1.50
2023-08-30T01:09:27.498Z,1.63
2023-08-30T01:12:03.086Z,1.60
2023-08-30T01:14:46.590Z,1.30
2023-08-30T01:17:16.097Z,1.57
2023-08-30T01:19:56.792Z,1.30
2023-08-30T01:22:38.699Z,1.67
2023-08-30T01:25:36.089Z,1.30
2023-08-30T01:28:04.404Z,1.60
2023-08-30T01:30:31.027Z,1.40
2023-08-30T01:32:57.765Z,1.40
2023-08-30T01:35:24.620Z,1.57
2023-08-30T01:37:51.156Z,1.47
2023-08-30T01:40:17.833Z,1.40
2023-08-30T01:42:45.739Z,1.37
2023-08-30T01:45:14.662Z,1.40
2023-08-30T01:47:42.706Z,1.57
2023-08-30T01:50:09.892Z,1.80
2023-08-30T01:52:36.453Z,1.27
2023-08-30T01:55:03.528Z,1.50
2023-08-30T01:57:30.105Z,1.20
2023-08-30T01:59:56.647Z,1.57
2023-08-30T02:02:23.225Z,1.40
2023-08-30T02:04:49.750Z,1.60
2023-08-30T02:07:19.149Z,1.47
2023-08-30T02:10:04.918Z,1.37
2023-08-30T02:12:35.865Z,1.40
2023-08-30T02:15:02.403Z,1.37
2023-08-30T02:17:28.978Z,1.30
2023-08-30T02:19:55.569Z,1.30
2023-08-30T02:22:22.185Z,1.40
2023-08-30T02:24:48.731Z,1.47
2023-08-30T02:27:15.250Z,1.50
2023-08-30T02:29:41.812Z,1.40
2023-08-30T02:32:08.342Z,1.30
2023-08-30T02:34:36.830Z,1.57
2023-08-30T02:37:03.354Z,1.40
2023-08-30T02:39:29.922Z,1.27
2023-08-30T02:41:56.510Z,1.33
2023-08-30T02:44:23.050Z,1.60
2023-08-30T02:46:49.582Z,1.43
2023-08-30T02:49:16.163Z,1.50
2023-08-30T02:51:42.720Z,1.50
2023-08-30T02:54:09.404Z,1.33
2023-08-30T02:56:36.194Z,1.40
2023-08-30T02:59:02.775Z,1.40
2023-08-30T03:01:29.327Z,1.30
2023-08-30T03:03:55.860Z,1.40
2023-08-30T03:06:22.398Z,1.50
2023-08-30T03:08:48.948Z,1.70
2023-08-30T03:11:15.512Z,1.40
2023-08-30T03:13:42.117Z,1.60
2023-08-30T03:16:15.467Z,1.30
2023-08-30T03:18:42.324Z,1.30
2023-08-30T03:21:08.900Z,1.43
2023-08-30T03:23:36.696Z,1.33
2023-08-30T03:26:13.015Z,1.30
2023-08-30T03:28:39.896Z,1.50
2023-08-30T03:31:16.140Z,1.23
2023-08-30T03:33:45.165Z,1.50
2023-08-30T03:36:13.031Z,1.47
2023-08-30T03:38:39.898Z,1.40
2023-08-30T03:41:06.594Z,1.63
2023-08-30T03:43:33.535Z,1.57
2023-08-30T03:46:00.829Z,1.50
2023-08-30T03:48:28.128Z,1.27
2023-08-30T03:50:55.376Z,1.30
2023-08-30T03:53:21.988Z,1.40
2023-08-30T03:55:48.550Z,1.30
2023-08-30T03:58:15.076Z,1.80
2023-08-30T04:00:41.632Z,1.30
2023-08-30T04:03:10.225Z,1.57
2023-08-30T04:05:37.489Z,1.40
2023-08-30T04:08:04.723Z,1.57
2023-08-30T04:10:35.235Z,1.47
2023-08-30T04:13:02.255Z,1.43
2023-08-30T04:15:28.761Z,1.30
2023-08-30T04:17:55.469Z,1.40
2023-08-30T04:20:22.077Z,1.57
2023-08-30T04:22:48.741Z,1.30
2023-08-30T04:25:15.330Z,1.33
2023-08-30T04:27:41.842Z,1.50
2023-08-30T04:30:08.874Z,1.23
2023-08-30T04:32:35.467Z,1.50
2023-08-30T04:35:02.142Z,1.40
2023-08-30T04:37:31.074Z,1.40
2023-08-30T04:39:57.710Z,1.40
2023-08-30T04:42:24.250Z,1.40
2023-08-30T04:44:50.818Z,1.30
2023-08-30T04:47:17.379Z,1.60
2023-08-30T04:49:43.912Z,1.60
2023-08-30T04:52:10.476Z,1.40
2023-08-30T04:54:37.000Z,1.50
2023-08-30T04:57:03.674Z,1.40
2023-08-30T04:59:30.207Z,1.30
2023-08-30T05:01:57.213Z,1.40
2023-08-30T05:04:25.164Z,1.43
2023-08-30T05:06:51.725Z,1.60
2023-08-30T05:09:18.279Z,1.27
2023-08-30T05:11:44.815Z,1.40
2023-08-30T05:14:13.937Z,1.90
2023-08-30T05:16:40.606Z,1.90
2023-08-30T05:19:07.191Z,1.90
2023-08-30T05:21:33.807Z,2.00
2023-08-30T05:24:00.347Z,1.97
2023-08-30T05:26:26.914Z,2.13
2023-08-30T05:28:53.425Z,2.23
2023-08-30T05:31:20.082Z,2.17
2023-08-30T05:33:46.631Z,2.23
2023-08-30T05:36:13.185Z,2.60
2023-08-30T05:38:39.695Z,2.50
2023-08-30T05:41:06.179Z,2.50
2023-08-30T05:43:32.744Z,2.57
2023-08-30T05:46:03.406Z,2.80
2023-08-30T05:48:30.527Z,2.47
2023-08-30T05:50:57.229Z,2.50
2023-08-30T05:53:23.932Z,2.73
2023-08-30T05:55:50.583Z,2.70
2023-08-30T05:58:18.645Z,2.60
2023-08-30T06:00:45.391Z,2.53
2023-08-30T06:03:12.067Z,2.60
2023-08-30T06:05:38.819Z,2.80
2023-08-30T06:08:05.523Z,3.10
2023-08-30T06:10:32.127Z,3.17
2023-08-30T06:12:58.642Z,3.20
2023-08-30T06:15:25.459Z,2.83
2023-08-30T06:17:52.232Z,2.80
2023-08-30T06:20:18.896Z,2.80
2023-08-30T06:22:46.282Z,2.87
2023-08-30T06:25:13.396Z,2.70
2023-08-30T06:27:42.378Z,2.80
2023-08-30T06:30:09.532Z,2.93
2023-08-30T06:32:36.077Z,2.70
2023-08-30T06:35:02.739Z,2.53
2023-08-30T06:37:29.273Z,2.50
2023-08-30T06:39:56.728Z,2.70
2023-08-30T06:42:24.254Z,2.43
2023-08-30T06:44:50.788Z,2.50
2023-08-30T06:47:17.320Z,2.20
2023-08-30T06:49:43.857Z,2.27
2023-08-30T06:52:10.399Z,2.00
2023-08-30T06:54:37.352Z,2.20
2023-08-30T06:57:04.147Z,1.90
2023-08-30T06:59:31.210Z,2.10
2023-08-30T07:01:57.812Z,2.07
2023-08-30T07:04:24.398Z,2.03
2023-08-30T07:06:52.035Z,1.97
2023-08-30T07:09:21.054Z,1.70
2023-08-30T07:11:49.660Z,1.80
2023-08-30T07:14:16.150Z,2.20
2023-08-30T07:16:42.735Z,1.70
2023-08-30T07:19:10.866Z,1.80
2023-08-30T07:21:39.630Z,1.90
2023-08-30T07:24:07.970Z,1.90
2023-08-30T07:26:34.592Z,1.70
2023-08-30T07:29:01.201Z,1.50
2023-08-30T07:31:27.819Z,1.90
2023-08-30T07:33:54.400Z,1.97
2023-08-30T07:36:24.066Z,1.77
2023-08-30T07:38:54.859Z,1.70
2023-08-30T07:41:21.391Z,1.70
2023-08-30T07:43:47.957Z,1.70
2023-08-30T07:46:14.499Z,1.73
2023-08-30T07:48:41.104Z,1.67
2023-08-30T07:51:07.703Z,1.70
2023-08-30T07:53:34.260Z,1.70
2023-08-30T07:56:00.795Z,1.77
2023-08-30T07:58:27.301Z,1.80
2023-08-30T08:00:54.133Z,1.60
2023-08-30T08:03:21.833Z,1.90
2023-08-30T08:05:48.392Z,1.47
2023-08-30T08:08:15.798Z,1.70
2023-08-30T08:10:43.241Z,1.73
2023-08-30T08:13:10.211Z,1.80
2023-08-30T08:15:37.210Z,1.90
2023-08-30T08:18:04.204Z,2.03
2023-08-30T08:20:31.241Z,1.90
2023-08-30T08:22:57.803Z,2.40
2023-08-30T08:25:24.946Z,2.30
2023-08-30T08:27:54.408Z,2.20
2023-08-30T08:30:21.536Z,2.20
2023-08-30T08:32:51.150Z,1.90
2023-08-30T08:35:17.769Z,2.27
2023-08-30T08:37:44.331Z,2.20
2023-08-30T08:40:11.705Z,2.30
2023-08-30T08:42:38.464Z,1.90
2023-08-30T08:45:05.569Z,2.50
2023-08-30T08:47:32.353Z,2.20
2023-08-30T08:49:59.051Z,2.50
2023-08-30T08:52:31.450Z,2.50
2023-08-30T08:55:01.049Z,2.07
2023-08-30T08:57:27.586Z,2.10
2023-08-30T08:59:56.926Z,1.93
2023-08-30T09:02:23.479Z,2.10
2023-08-30T09:04:50.001Z,2.20
2023-08-30T09:07:16.548Z,1.93
2023-08-30T09:09:43.159Z,2.10
2023-08-30T09:12:09.851Z,2.20
2023-08-30T09:14:36.408Z,2.00
2023-08-30T09:17:03.674Z,2.17
2023-08-30T09:19:30.906Z,2.00
2023-08-30T09:21:58.814Z,2.30
2023-08-30T09:24:25.891Z,2.07
2023-08-30T09:26:54.213Z,2.00
2023-08-30T09:29:22.739Z,2.10
2023-08-30T09:31:54.919Z,2.13
2023-08-30T09:34:25.693Z,1.90
2023-08-30T09:36:52.477Z,1.83
2023-08-30T09:39:19.005Z,1.97
2023-08-30T09:41:51.910Z,1.90
2023-08-30T09:44:20.004Z,2.10
2023-08-30T09:49:16.482Z,2.30
2023-08-30T09:51:43.738Z,2.60
2023-08-30T09:54:32.245Z,2.50
2023-08-30T09:57:03.953Z,2.60
2023-08-30T09:59:30.461Z,2.17
2023-08-30T10:01:57.227Z,2.30
2023-08-30T10:04:24.610Z,2.33
2023-08-30T10:06:51.219Z,2.30
2023-08-30T10:09:20.949Z,1.97
2023-08-30T10:11:48.198Z,2.30
2023-08-30T10:14:14.850Z,2.20
2023-08-30T10:16:44.816Z,2.10
2023-08-30T10:19:18.293Z,1.77
2023-08-30T10:21:45.050Z,2.20
2023-08-30T10:24:26.575Z,2.17
2023-08-30T10:26:59.752Z,2.10
2023-08-30T10:29:27.190Z,2.23
2023-08-30T10:31:53.719Z,2.03
2023-08-30T10:34:21.728Z,2.17
2023-08-30T10:36:58.631Z,2.10
2023-08-30T10:39:34.326Z,2.00
2023-08-30T10:42:01.028Z,2.10
2023-08-30T10:44:27.528Z,1.90
2023-08-30T10:46:57.761Z,2.53
2023-08-30T10:49:24.690Z,4.00
2023-08-30T10:51:58.695Z,3.80
2023-08-30T10:54:25.292Z,3.53
2023-08-30T10:57:02.354Z,3.57
2023-08-30T10:59:30.471Z,3.57
2023-08-30T11:01:57.111Z,3.70
2023-08-30T11:04:23.950Z,3.67
2023-08-30T11:06:53.330Z,3.40
2023-08-30T11:09:22.538Z,3.10
2023-08-30T11:11:49.979Z,2.80
2023-08-30T11:14:16.943Z,3.30
2023-08-30T11:16:43.465Z,2.90
2023-08-30T11:19:10.729Z,3.57
2023-08-30T11:21:41.555Z,2.93
2023-08-30T11:24:08.327Z,3.23
2023-08-30T11:26:34.894Z,3.13
2023-08-30T11:29:08.278Z,2.80
2023-08-30T11:31:34.929Z,2.87
2023-08-30T11:34:01.706Z,2.90
2023-08-30T11:36:29.637Z,3.00
2023-08-30T11:38:56.336Z,2.60
2023-08-30T11:41:23.769Z,3.03
2023-08-30T11:43:50.604Z,3.10
2023-08-30T11:46:17.915Z,2.90
2023-08-30T11:48:44.903Z,2.70
2023-08-30T11:51:12.041Z,2.90
2023-08-30T11:53:40.852Z,2.70
2023-08-30T11:56:08.517Z,2.67
2023-08-30T11:58:35.907Z,2.80
2023-08-30T12:01:02.929Z,2.87
2023-08-30T12:03:30.156Z,2.80
2023-08-30T12:05:57.050Z,2.50
2023-08-30T12:08:27.900Z,2.53
2023-08-30T12:10:54.944Z,2.60
2023-08-30T12:13:25.046Z,2.57
2023-08-30T12:15:55.326Z,2.70
2023-08-30T12:18:23.386Z,2.50
2023-08-30T12:20:57.085Z,2.23
2023-08-30T12:23:27.330Z,2.60
2023-08-30T12:26:07.525Z,2.40
2023-08-30T12:28:38.393Z,2.57
2023-08-30T12:31:06.148Z,2.70
2023-08-30T12:33:35.168Z,2.17
2023-08-30T12:36:02.397Z,2.50
2023-08-30T12:38:29.203Z,2.33
2023-08-30T12:40:55.883Z,2.30
2023-08-30T12:43:24.052Z,2.40
2023-08-30T12:45:51.213Z,2.30
2023-08-30T12:48:19.130Z,2.50
2023-08-30T12:50:47.861Z,2.20
2023-08-30T12:53:14.427Z,2.53
2023-08-30T12:55:41.530Z,2.17
2023-08-30T12:58:08.523Z,2.17
2023-08-30T13:00:35.580Z,1.97
2023-08-30T13:03:04.657Z,2.30
2023-08-30T13:05:33.972Z,2.23
2023-08-30T13:08:02.098Z,2.43
2023-08-30T13:10:29.706Z,2.33
2023-08-30T13:12:56.815Z,2.17
2023-08-30T13:15:23.488Z,2.13
2023-08-30T13:17:50.225Z,2.03
2023-08-30T13:20:17.056Z,2.07
2023-08-30T13:22:43.954Z,1.90
2023-08-30T13:25:10.686Z,1.93
2023-08-30T13:27:37.540Z,2.40
2023-08-30T13:30:04.536Z,2.00
2023-08-30T13:32:31.252Z,1.90
2023-08-30T13:34:57.971Z,2.00
2023-08-30T13:37:27.161Z,2.07
2023-08-30T13:39:54.862Z,2.00
2023-08-30T13:42:22.651Z,1.90
2023-08-30T13:44:51.727Z,2.13
2023-08-30T13:47:20.221Z,1.90
2023-08-30T13:49:47.069Z,1.83
2023-08-30T13:52:13.755Z,2.00
2023-08-30T13:54:41.846Z,1.93
2023-08-30T13:57:08.458Z,1.90
2023-08-30T13:59:36.849Z,2.17
2023-08-30T14:02:06.804Z,1.80
2023-08-30T14:04:34.059Z,2.10
2023-08-30T14:07:00.786Z,1.80
2023-08-30T14:09:27.391Z,1.63
2023-08-30T14:11:58.398Z,1.70
2023-08-30T14:14:24.946Z,1.80
2023-08-30T14:16:51.521Z,1.83
2023-08-30T14:19:19.956Z,1.80
2023-08-30T14:21:46.534Z,2.07
2023-08-30T14:24:13.140Z,1.63
2023-08-30T14:26:39.745Z,1.80
2023-08-30T14:29:10.629Z,1.90
2023-08-30T14:31:38.560Z,1.80
2023-08-30T14:34:06.111Z,1.90
2023-08-30T14:36:32.659Z,1.70
2023-08-30T14:38:59.246Z,1.80
2023-08-30T14:41:27.189Z,1.70
2023-08-30T14:43:53.805Z,1.83
2023-08-30T14:46:24.300Z,1.80
2023-08-30T14:48:54.209Z,1.63
2023-08-30T14:51:20.950Z,1.70
2023-08-30T14:53:47.557Z,1.73
2023-08-30T14:56:15.185Z,1.50
2023-08-30T14:58:43.355Z,2.00
2023-08-30T15:01:11.898Z,1.70
2023-08-30T15:03:38.620Z,1.70
2023-08-30T15:06:05.878Z,1.87
2023-08-30T15:08:32.447Z,1.67
2023-08-30T15:10:59.361Z,1.70
2023-08-30T15:13:26.419Z,1.63
2023-08-30T15:15:53.024Z,1.50
2023-08-30T15:18:20.370Z,1.63
2023-08-30T15:20:48.405Z,1.60
2023-08-30T15:23:19.209Z,1.50
2023-08-30T15:25:47.646Z,1.43
2023-08-30T15:28:16.692Z,1.50
2023-08-30T15:30:44.843Z,1.40
2023-08-30T15:33:11.548Z,1.40
2023-08-30T15:35:41.268Z,1.60
2023-08-30T15:38:08.613Z,1.60
2023-08-30T15:40:37.513Z,1.57
2023-08-30T15:43:05.852Z,1.45
2023-08-30T15:45:32.582Z,1.20
2023-08-30T15:47:59.356Z,1.70
2023-08-30T15:50:26.393Z,1.50
2023-08-30T15:52:53.046Z,1.60
2023-08-30T15:55:20.825Z,1.53
2023-08-30T15:57:47.390Z,1.60
2023-08-30T16:00:14.506Z,1.43
2023-08-30T16:02:41.231Z,1.47
2023-08-30T16:05:08.269Z,1.40
2023-08-30T16:07:36.085Z,1.60
2023-08-30T16:10:04.074Z,1.60
2023-08-30T16:12:31.747Z,1.50
2023-08-30T16:14:58.765Z,1.50
2023-08-30T16:17:25.423Z,1.20
2023-08-30T16:19:52.202Z,1.70
2023-08-30T16:22:20.706Z,1.37
2023-08-30T16:24:47.284Z,1.50
2023-08-30T16:27:13.839Z,1.70
2023-08-30T16:29:40.838Z,1.47
2023-08-30T16:32:07.422Z,1.40
2023-08-30T16:34:35.536Z,1.60
2023-08-30T16:37:05.268Z,1.80
2023-08-30T16:39:31.864Z,1.60
2023-08-30T16:41:58.544Z,1.70
2023-08-30T16:44:25.900Z,1.60
2023-08-30T16:46:53.852Z,1.57
2023-08-30T16:49:22.820Z,1.70
2023-08-30T16:51:49.462Z,1.60
2023-08-30T16:54:28.110Z,1.67
2023-08-30T16:56:54.690Z,1.70
2023-08-30T16:59:21.555Z,1.37
2023-08-30T17:01:48.672Z,1.87
2023-08-30T17:04:16.503Z,2.23
2023-08-30T17:06:44.153Z,2.10
2023-08-30T17:09:13.151Z,2.00
2023-08-30T17:11:39.694Z,2.10
2023-08-30T17:14:06.471Z,2.13
2023-08-30T17:16:37.273Z,1.77
2023-08-30T17:19:04.176Z,2.00
2023-08-30T17:21:30.832Z,2.13
2023-08-30T17:23:57.488Z,2.00
2023-08-30T17:26:24.072Z,1.80
2023-08-30T17:28:50.648Z,2.20
2023-08-30T17:31:18.400Z,1.83
2023-08-30T17:33:47.116Z,1.93
2023-08-30T17:36:14.933Z,1.80
2023-08-30T17:38:41.592Z,2.00
2023-08-30T17:41:10.965Z,1.80
2023-08-30T17:43:38.106Z,2.00
2023-08-30T17:46:04.728Z,1.90
2023-08-30T17:48:31.763Z,1.87
2023-08-30T17:50:58.362Z,2.07
2023-08-30T17:53:26.330Z,1.83
2023-08-30T17:55:59.809Z,1.80
2023-08-30T17:58:30.682Z,1.80
2023-08-30T18:01:01.686Z,1.60
2023-08-30T18:03:30.179Z,1.73
2023-08-30T18:06:11.196Z,1.63
2023-08-30T18:08:38.197Z,1.77
2023-08-30T18:11:14.692Z,1.53
2023-08-30T18:13:46.186Z,1.70
2023-08-30T18:16:13.642Z,2.03
2023-08-30T18:18:43.482Z,1.60
2023-08-30T18:21:15.484Z,1.90
2023-08-30T18:23:43.975Z,1.53
2023-08-30T18:26:11.919Z,1.77
2023-08-30T18:28:40.082Z,2.00
2023-08-30T18:33:34.390Z,1.70
2023-08-30T18:36:00.901Z,1.67
2023-08-30T18:38:27.419Z,1.60
2023-08-30T18:41:04.782Z,1.63
2023-08-30T18:43:39.108Z,1.53
2023-08-30T18:46:05.746Z,1.60
2023-08-30T18:48:32.276Z,1.60
2023-08-30T18:50:58.767Z,1.50
2023-08-30T18:53:25.291Z,1.43
2023-08-30T18:55:53.789Z,1.60
2023-08-30T18:58:21.699Z,1.60
2023-08-30T19:00:51.436Z,1.43
2023-08-30T19:03:18.124Z,1.70
2023-08-30T19:05:44.732Z,1.67
2023-08-30T19:08:12.286Z,1.50
2023-08-30T19:10:38.838Z,1.70
2023-08-30T19:13:05.593Z,1.40
2023-08-30T19:15:32.090Z,1.50
2023-08-30T19:17:58.736Z,1.43
2023-08-30T19:20:25.345Z,1.40
2023-08-30T19:22:51.878Z,1.60
2023-08-30T19:25:19.216Z,1.60
2023-08-30T19:27:45.813Z,1.60
2023-08-30T19:30:12.909Z,1.60
2023-08-30T19:32:39.833Z,1.67
2023-08-30T19:35:07.410Z,1.70
2023-08-30T19:37:33.979Z,1.47
2023-08-30T19:40:05.283Z,1.50
2023-08-30T19:42:31.890Z,1.40
2023-08-30T19:45:04.622Z,1.50
2023-08-30T19:47:31.629Z,1.30
2023-08-30T19:49:58.652Z,1.60
2023-08-30T19:52:25.655Z,1.60
2023-08-30T19:54:52.564Z,1.63
2023-08-30T19:57:19.281Z,1.30
2023-08-30T19:59:45.944Z,1.40
2023-08-30T20:02:15.619Z,1.40
2023-08-30T20:04:42.210Z,1.47
2023-08-30T20:07:08.956Z,1.50
2023-08-30T20:09:35.988Z,1.47
2023-08-30T20:12:02.557Z,1.50
2023-08-30T20:14:29.515Z,1.70
2023-08-30T20:16:56.040Z,1.43
2023-08-30T20:19:23.228Z,1.40
2023-08-30T20:21:49.963Z,1.20
2023-08-30T20:24:17.076Z,1.20
2023-08-30T20:26:47.889Z,1.30
2023-08-30T20:29:14.424Z,1.27
2023-08-30T20:31:41.051Z,1.30
2023-08-30T20:34:07.679Z,1.43
2023-08-30T20:36:39.498Z,1.50
2023-08-30T20:39:06.867Z,1.40
2023-08-30T20:41:33.488Z,1.30
2023-08-30T20:44:00.248Z,1.20
2023-08-30T20:46:27.177Z,1.30
2023-08-30T20:48:53.761Z,1.03
2023-08-30T20:51:20.319Z,1.40
2023-08-30T20:53:48.824Z,1.27
2023-08-30T20:56:15.418Z,1.17
2023-08-30T20:58:44.986Z,1.30
2023-08-30T21:01:12.108Z,1.30
2023-08-30T21:03:39.154Z,1.37
2023-08-30T21:06:06.119Z,1.20
2023-08-30T21:08:33.270Z,1.30
2023-08-30T21:10:59.830Z,1.23
2023-08-30T21:13:26.424Z,1.13
2023-08-30T21:15:53.022Z,1.27
2023-08-30T21:18:20.545Z,1.37
2023-08-30T21:20:47.205Z,1.17
2023-08-30T21:23:13.985Z,1.30
2023-08-30T21:25:42.123Z,1.23
2023-08-30T21:28:08.810Z,1.20
2023-08-30T21:30:42.842Z,1.30
2023-08-30T21:33:10.485Z,1.27
2023-08-30T21:35:41.159Z,1.30
2023-08-30T21:38:11.918Z,1.10
2023-08-30T21:40:42.013Z,1.10
2023-08-30T21:43:09.449Z,0.97
2023-08-30T21:45:38.208Z,1.10
2023-08-30T21:48:05.235Z,1.30
2023-08-30T21:50:31.782Z,1.20
2023-08-30T21:52:58.366Z,1.10
2023-08-30T21:55:24.936Z,1.10
2023-08-30T21:57:51.464Z,1.30
2023-08-30T22:00:18.057Z,1.20
2023-08-30T22:02:45.618Z,1.40
2023-08-30T22:05:15.771Z,1.03
2023-08-30T22:07:42.536Z,1.20
2023-08-30T22:10:10.877Z,1.27
2023-08-30T22:12:38.056Z,1.20
2023-08-30T22:15:06.861Z,1.20
2023-08-30T22:17:33.420Z,1.20
2023-08-30T22:19:59.959Z,1.10
2023-08-30T22:22:26.520Z,1.20
2023-08-30T22:24:53.076Z,1.30
2023-08-30T22:27:19.637Z,1.10
2023-08-30T22:29:46.372Z,1.30
2023-08-30T22:32:12.918Z,1.10
2023-08-30T22:34:39.439Z,1.20
2023-08-30T22:37:06.679Z,1.10
2023-08-30T22:39:33.247Z,1.07
2023-08-30T22:42:00.095Z,1.23
2023-08-30T22:44:26.666Z,1.23
2023-08-30T22:46:53.254Z,1.10
2023-08-30T22:49:19.803Z,1.13
2023-08-30T22:51:54.272Z,1.07
2023-08-30T22:54:22.251Z,1.10
2023-08-30T22:56:48.952Z,1.20
2023-08-30T22:59:15.808Z,1.20
2023-08-30T23:01:42.480Z,1.10
2023-08-30T23:04:09.089Z,1.10
2023-08-30T23:06:35.668Z,1.20
2023-08-30T23:09:02.197Z,1.10
2023-08-30T23:11:28.750Z,1.30
2023-08-30T23:13:55.280Z,1.10
2023-08-30T23:16:21.909Z,1.10
2023-08-30T23:18:48.889Z,1.20
2023-08-30T23:21:15.547Z,1.07
2023-08-30T23:23:43.164Z,1.20
2023-08-30T23:26:09.862Z,1.00
2023-08-30T23:28:37.110Z,1.10
2023-08-30T23:31:07.110Z,1.30
2023-08-30T23:33:36.875Z,1.03
2023-08-30T23:36:04.238Z,1.10
2023-08-30T23:38:31.109Z,0.90
2023-08-30T23:40:57.627Z,1.20
2023-08-30T23:43:24.262Z,1.10
2023-08-30T23:45:53.633Z,1.30
2023-08-30T23:48:20.650Z,0.93
2023-08-30T23:50:48.447Z,1.10
2023-08-30T23:53:15.700Z,1.03
2023-08-30T23:55:43.454Z,1.10
2023-08-30T23:58:10.028Z,1.00
